sensor_id;sensor_type;location;lat;lon;timestamp;temperature;humidity
19256;DHT22;9762;52.490;13.410;2023-03-20T00:02:18;16.30;91.90
19256;DHT22;9762;52.490;13.410;2023-03-20T00:04:43;16.30;91.80
19256;DHT22;9762;52.490;13.410;2023-03-20T00:07:09;16.30;91.80
19256;DHT22;9762;52.490;13.410;2023-03-20T00:09:37;16.20;91.80
19256;DHT22;9762;52.490;13.410;2023-03-20T00:12:03;16.20;91.80
19256;DHT22;9762;52.490;13.410;2023-03-20T00:14:29;16.20;91.80
19256;DHT22;9762;52.490;13.410;2023-03-20T00:16:55;16.10;91.80
19256;DHT22;9762;52.490;13.410;2023-03-20T00:19:23;16.10;91.90
19256;DHT22;9762;52.490;13.410;2023-03-20T00:21:51;16.10;92.00
19256;DHT22;9762;52.490;13.410;2023-03-20T00:24:18;16.00;92.00
19256;DHT22;9762;52.490;13.410;2023-03-20T00:26:45;16.00;92.00
19256;DHT22;9762;52.490;13.410;2023-03-20T00:29:26;16.00;92.10
19256;DHT22;9762;52.490;13.410;2023-03-20T00:31:53;15.90;92.00
19256;DHT22;9762;52.490;13.410;2023-03-20T00:34:21;15.90;92.10
19256;DHT22;9762;52.490;13.410;2023-03-20T00:36:48;15.90;92.30
19256;DHT22;9762;52.490;13.410;2023-03-20T00:39:14;15.90;93.10
19256;DHT22;9762;52.490;13.410;2023-03-20T00:41:49;15.80;93.90
19256;DHT22;9762;52.490;13.410;2023-03-20T00:47:09;15.80;93.70
19256;DHT22;9762;52.490;13.410;2023-03-20T00:49:36;15.80;93.50
19256;DHT22;9762;52.490;13.410;2023-03-20T00:52:04;15.80;93.50
19256;DHT22;9762;52.490;13.410;2023-03-20T00:54:30;15.80;92.80
19256;DHT22;9762;52.490;13.410;2023-03-20T01:02:18;15.70;92.60
19256;DHT22;9762;52.490;13.410;2023-03-20T01:04:45;15.70;92.70
19256;DHT22;9762;52.490;13.410;2023-03-20T01:07:13;15.70;93.20
19256;DHT22;9762;52.490;13.410;2023-03-20T01:09:39;15.60;93.70
19256;DHT22;9762;52.490;13.410;2023-03-20T01:14:32;15.60;97.00
19256;DHT22;9762;52.490;13.410;2023-03-20T01:16:58;15.50;99.90
19256;DHT22;9762;52.490;13.410;2023-03-20T01:19:24;15.50;99.90
19256;DHT22;9762;52.490;13.410;2023-03-20T01:21:50;15.50;99.90
19256;DHT22;9762;52.490;13.410;2023-03-20T01:24:15;15.50;99.90
19256;DHT22;9762;52.490;13.410;2023-03-20T01:26:42;15.50;99.90
19256;DHT22;9762;52.490;13.410;2023-03-20T01:29:25;15.50;99.90
19256;DHT22;9762;52.490;13.410;2023-03-20T01:31:52;15.40;99.90
19256;DHT22;9762;52.490;13.410;2023-03-20T01:34:18;15.40;99.90
19256;DHT22;9762;52.490;13.410;2023-03-20T01:36:53;15.40;99.90
19256;DHT22;9762;52.490;13.410;2023-03-20T01:39:20;15.40;99.90
19256;DHT22;9762;52.490;13.410;2023-03-20T01:41:50;15.40;99.90
19256;DHT22;9762;52.490;13.410;2023-03-20T01:44:28;15.40;99.90
19256;DHT22;9762;52.490;13.410;2023-03-20T01:46:54;15.40;99.90
19256;DHT22;9762;52.490;13.410;2023-03-20T01:51:50;15.40;99.90
19256;DHT22;9762;52.490;13.410;2023-03-20T01:54:23;15.40;99.90
19256;DHT22;9762;52.490;13.410;2023-03-20T01:59:26;15.30;99.90
19256;DHT22;9762;52.490;13.410;2023-03-20T02:01:53;15.20;93.40
19256;DHT22;9762;52.490;13.410;2023-03-20T02:04:24;15.30;93.60
19256;DHT22;9762;52.490;13.410;2023-03-20T02:06:50;15.20;93.60
19256;DHT22;9762;52.490;13.410;2023-03-20T02:09:16;15.20;93.60
19256;DHT22;9762;52.490;13.410;2023-03-20T02:11:42;15.20;93.50
19256;DHT22;9762;52.490;13.410;2023-03-20T02:14:09;15.20;93.50
19256;DHT22;9762;52.490;13.410;2023-03-20T02:16:35;15.10;93.60
19256;DHT22;9762;52.490;13.410;2023-03-20T02:19:01;15.10;93.80
19256;DHT22;9762;52.490;13.410;2023-03-20T02:22:14;15.00;93.80
19256;DHT22;9762;52.490;13.410;2023-03-20T02:27:43;15.00;93.90
19256;DHT22;9762;52.490;13.410;2023-03-20T02:30:52;15.00;94.10
19256;DHT22;9762;52.490;13.410;2023-03-20T02:33:50;15.00;94.10
19256;DHT22;9762;52.490;13.410;2023-03-20T02:36:51;15.00;94.20
19256;DHT22;9762;52.490;13.410;2023-03-20T02:42:14;14.90;94.20
19256;DHT22;9762;52.490;13.410;2023-03-20T02:47:19;14.90;94.40
19256;DHT22;9762;52.490;13.410;2023-03-20T02:52:47;14.90;94.40
19256;DHT22;9762;52.490;13.410;2023-03-20T02:55:41;14.80;94.50
19256;DHT22;9762;52.490;13.410;2023-03-20T02:58:23;14.80;94.60
19256;DHT22;9762;52.490;13.410;2023-03-20T03:00:59;14.80;94.60
19256;DHT22;9762;52.490;13.410;2023-03-20T03:03:36;14.70;94.80
19256;DHT22;9762;52.490;13.410;2023-03-20T03:06:19;14.80;94.90
19256;DHT22;9762;52.490;13.410;2023-03-20T03:08:50;14.80;94.90
19256;DHT22;9762;52.490;13.410;2023-03-20T03:11:18;14.70;94.90
19256;DHT22;9762;52.490;13.410;2023-03-20T03:13:48;14.80;94.90
19256;DHT22;9762;52.490;13.410;2023-03-20T03:16:20;14.80;94.90
19256;DHT22;9762;52.490;13.410;2023-03-20T03:18:49;14.80;94.90
19256;DHT22;9762;52.490;13.410;2023-03-20T03:21:17;14.70;94.90
19256;DHT22;9762;52.490;13.410;2023-03-20T03:23:47;14.70;95.10
19256;DHT22;9762;52.490;13.410;2023-03-20T03:26:33;14.70;95.50
19256;DHT22;9762;52.490;13.410;2023-03-20T03:29:05;14.70;95.20
19256;DHT22;9762;52.490;13.410;2023-03-20T03:31:37;14.70;95.20
19256;DHT22;9762;52.490;13.410;2023-03-20T03:34:03;14.70;95.20
19256;DHT22;9762;52.490;13.410;2023-03-20T03:36:42;14.70;95.20
19256;DHT22;9762;52.490;13.410;2023-03-20T03:42:13;14.70;95.30
19256;DHT22;9762;52.490;13.410;2023-03-20T03:44:56;14.70;95.40
19256;DHT22;9762;52.490;13.410;2023-03-20T03:47:30;14.70;95.40
19256;DHT22;9762;52.490;13.410;2023-03-20T03:50:07;14.60;95.50
19256;DHT22;9762;52.490;13.410;2023-03-20T03:52:35;14.60;95.70
19256;DHT22;9762;52.490;13.410;2023-03-20T03:55:06;14.60;95.70
19256;DHT22;9762;52.490;13.410;2023-03-20T03:57:45;14.60;95.70
19256;DHT22;9762;52.490;13.410;2023-03-20T04:00:14;14.60;95.60
19256;DHT22;9762;52.490;13.410;2023-03-20T04:02:43;14.60;95.70
19256;DHT22;9762;52.490;13.410;2023-03-20T04:05:10;14.60;95.60
19256;DHT22;9762;52.490;13.410;2023-03-20T04:07:36;14.50;95.70
19256;DHT22;9762;52.490;13.410;2023-03-20T04:10:02;14.50;95.70
19256;DHT22;9762;52.490;13.410;2023-03-20T04:14:59;14.50;96.00
19256;DHT22;9762;52.490;13.410;2023-03-20T04:17:25;14.50;96.00
19256;DHT22;9762;52.490;13.410;2023-03-20T04:19:50;14.50;96.10
19256;DHT22;9762;52.490;13.410;2023-03-20T04:22:16;14.40;96.20
19256;DHT22;9762;52.490;13.410;2023-03-20T04:24:41;14.40;96.20
19256;DHT22;9762;52.490;13.410;2023-03-20T04:27:07;14.40;96.20
19256;DHT22;9762;52.490;13.410;2023-03-20T04:29:33;14.40;96.30
19256;DHT22;9762;52.490;13.410;2023-03-20T04:31:58;14.40;96.30
19256;DHT22;9762;52.490;13.410;2023-03-20T04:34:24;14.40;96.30
19256;DHT22;9762;52.490;13.410;2023-03-20T04:36:49;14.40;96.30
19256;DHT22;9762;52.490;13.410;2023-03-20T04:39:15;14.40;96.40
19256;DHT22;9762;52.490;13.410;2023-03-20T04:41:41;14.40;96.40
19256;DHT22;9762;52.490;13.410;2023-03-20T04:44:07;14.40;96.50
19256;DHT22;9762;52.490;13.410;2023-03-20T04:46:32;14.40;96.50
19256;DHT22;9762;52.490;13.410;2023-03-20T04:48:58;14.40;96.50
19256;DHT22;9762;52.490;13.410;2023-03-20T04:51:23;14.40;96.50
19256;DHT22;9762;52.490;13.410;2023-03-20T04:53:49;14.40;96.50
19256;DHT22;9762;52.490;13.410;2023-03-20T04:56:15;14.40;96.50
19256;DHT22;9762;52.490;13.410;2023-03-20T04:58:41;14.40;96.40
19256;DHT22;9762;52.490;13.410;2023-03-20T05:01:06;14.50;96.60
19256;DHT22;9762;52.490;13.410;2023-03-20T05:03:32;14.50;96.60
19256;DHT22;9762;52.490;13.410;2023-03-20T05:05:58;14.50;96.50
19256;DHT22;9762;52.490;13.410;2023-03-20T05:08:24;14.40;96.60
19256;DHT22;9762;52.490;13.410;2023-03-20T05:10:50;14.40;96.70
19256;DHT22;9762;52.490;13.410;2023-03-20T05:13:16;14.40;97.10
19256;DHT22;9762;52.490;13.410;2023-03-20T05:15:42;14.40;96.80
19256;DHT22;9762;52.490;13.410;2023-03-20T05:18:08;14.40;96.90
19256;DHT22;9762;52.490;13.410;2023-03-20T05:20:34;14.40;96.90
19256;DHT22;9762;52.490;13.410;2023-03-20T05:23:01;14.40;97.00
19256;DHT22;9762;52.490;13.410;2023-03-20T05:25:27;14.40;97.20
19256;DHT22;9762;52.490;13.410;2023-03-20T05:27:52;14.40;97.20
19256;DHT22;9762;52.490;13.410;2023-03-20T05:30:18;14.40;97.20
19256;DHT22;9762;52.490;13.410;2023-03-20T05:32:44;14.40;97.20
19256;DHT22;9762;52.490;13.410;2023-03-20T05:35:10;14.40;97.30
19256;DHT22;9762;52.490;13.410;2023-03-20T05:37:37;14.40;97.30
19256;DHT22;9762;52.490;13.410;2023-03-20T05:40:04;14.40;97.40
19256;DHT22;9762;52.490;13.410;2023-03-20T05:42:29;14.40;97.50
19256;DHT22;9762;52.490;13.410;2023-03-20T05:44:55;14.40;97.60
19256;DHT22;9762;52.490;13.410;2023-03-20T05:47:21;14.40;97.60
19256;DHT22;9762;52.490;13.410;2023-03-20T05:49:46;14.40;97.70
19256;DHT22;9762;52.490;13.410;2023-03-20T05:52:12;14.40;97.60
19256;DHT22;9762;52.490;13.410;2023-03-20T05:54:38;14.50;97.80
19256;DHT22;9762;52.490;13.410;2023-03-20T05:57:03;14.50;97.80
19256;DHT22;9762;52.490;13.410;2023-03-20T05:59:29;14.50;97.90
19256;DHT22;9762;52.490;13.410;2023-03-20T06:01:54;14.50;97.80
19256;DHT22;9762;52.490;13.410;2023-03-20T06:04:20;14.50;98.00
19256;DHT22;9762;52.490;13.410;2023-03-20T06:06:46;14.50;97.90
19256;DHT22;9762;52.490;13.410;2023-03-20T06:09:11;14.50;97.90
19256;DHT22;9762;52.490;13.410;2023-03-20T06:11:37;14.50;98.00
19256;DHT22;9762;52.490;13.410;2023-03-20T06:14:02;14.50;98.00
19256;DHT22;9762;52.490;13.410;2023-03-20T06:16:28;14.50;98.00
19256;DHT22;9762;52.490;13.410;2023-03-20T06:18:54;14.50;97.90
19256;DHT22;9762;52.490;13.410;2023-03-20T06:21:19;14.50;98.10
19256;DHT22;9762;52.490;13.410;2023-03-20T06:23:45;14.50;98.10
19256;DHT22;9762;52.490;13.410;2023-03-20T06:26:10;14.40;98.10
19256;DHT22;9762;52.490;13.410;2023-03-20T06:28:36;14.40;98.30
19256;DHT22;9762;52.490;13.410;2023-03-20T06:31:02;14.30;98.40
19256;DHT22;9762;52.490;13.410;2023-03-20T06:33:27;14.30;98.40
19256;DHT22;9762;52.490;13.410;2023-03-20T06:35:53;14.20;98.60
19256;DHT22;9762;52.490;13.410;2023-03-20T06:38:19;14.20;98.70
19256;DHT22;9762;52.490;13.410;2023-03-20T06:40:44;14.10;98.80
19256;DHT22;9762;52.490;13.410;2023-03-20T06:43:10;14.10;98.80
19256;DHT22;9762;52.490;13.410;2023-03-20T06:45:37;14.10;98.80
19256;DHT22;9762;52.490;13.410;2023-03-20T06:48:07;14.10;98.80
19256;DHT22;9762;52.490;13.410;2023-03-20T06:50:33;14.10;98.70
19256;DHT22;9762;52.490;13.410;2023-03-20T06:52:59;14.10;98.70
19256;DHT22;9762;52.490;13.410;2023-03-20T06:55:24;14.10;98.60
19256;DHT22;9762;52.490;13.410;2023-03-20T06:57:50;14.00;98.50
19256;DHT22;9762;52.490;13.410;2023-03-20T07:00:16;14.00;98.50
19256;DHT22;9762;52.490;13.410;2023-03-20T07:02:42;13.90;98.60
19256;DHT22;9762;52.490;13.410;2023-03-20T07:05:08;13.80;98.80
19256;DHT22;9762;52.490;13.410;2023-03-20T07:07:34;13.80;98.90
19256;DHT22;9762;52.490;13.410;2023-03-20T07:10:01;13.80;98.90
19256;DHT22;9762;52.490;13.410;2023-03-20T07:12:27;13.80;99.00
19256;DHT22;9762;52.490;13.410;2023-03-20T07:14:53;13.80;99.00
19256;DHT22;9762;52.490;13.410;2023-03-20T07:17:19;13.80;99.00
19256;DHT22;9762;52.490;13.410;2023-03-20T07:19:45;13.90;99.10
19256;DHT22;9762;52.490;13.410;2023-03-20T07:22:19;13.90;98.90
19256;DHT22;9762;52.490;13.410;2023-03-20T07:24:45;13.90;98.90
19256;DHT22;9762;52.490;13.410;2023-03-20T07:27:10;13.80;99.00
19256;DHT22;9762;52.490;13.410;2023-03-20T07:29:36;13.80;99.10
19256;DHT22;9762;52.490;13.410;2023-03-20T07:32:02;13.80;99.10
19256;DHT22;9762;52.490;13.410;2023-03-20T07:34:28;13.80;99.00
19256;DHT22;9762;52.490;13.410;2023-03-20T07:36:53;13.80;98.80
19256;DHT22;9762;52.490;13.410;2023-03-20T07:39:19;13.70;98.80
19256;DHT22;9762;52.490;13.410;2023-03-20T07:41:44;13.60;98.90
19256;DHT22;9762;52.490;13.410;2023-03-20T07:46:39;13.50;98.80
19256;DHT22;9762;52.490;13.410;2023-03-20T07:49:05;13.40;99.30
19256;DHT22;9762;52.490;13.410;2023-03-20T07:51:31;13.40;99.40
19256;DHT22;9762;52.490;13.410;2023-03-20T07:53:57;13.40;99.50
19256;DHT22;9762;52.490;13.410;2023-03-20T07:56:22;13.40;99.50
19256;DHT22;9762;52.490;13.410;2023-03-20T07:58:48;13.40;99.50
19256;DHT22;9762;52.490;13.410;2023-03-20T08:01:14;13.40;99.40
19256;DHT22;9762;52.490;13.410;2023-03-20T08:03:40;13.40;99.40
19256;DHT22;9762;52.490;13.410;2023-03-20T08:06:06;13.40;99.20
19256;DHT22;9762;52.490;13.410;2023-03-20T08:08:34;13.40;99.20
19256;DHT22;9762;52.490;13.410;2023-03-20T08:11:00;13.50;99.40
19256;DHT22;9762;52.490;13.410;2023-03-20T08:13:26;13.50;99.20
19256;DHT22;9762;52.490;13.410;2023-03-20T08:15:51;13.60;99.10
19256;DHT22;9762;52.490;13.410;2023-03-20T08:18:17;13.60;98.90
19256;DHT22;9762;52.490;13.410;2023-03-20T08:20:44;13.70;99.00
19256;DHT22;9762;52.490;13.410;2023-03-20T08:23:11;13.70;98.70
19256;DHT22;9762;52.490;13.410;2023-03-20T08:25:36;13.70;98.70
19256;DHT22;9762;52.490;13.410;2023-03-20T08:28:02;13.80;98.80
19256;DHT22;9762;52.490;13.410;2023-03-20T08:30:28;13.80;98.50
19256;DHT22;9762;52.490;13.410;2023-03-20T08:32:54;13.80;98.30
19256;DHT22;9762;52.490;13.410;2023-03-20T08:35:20;13.70;98.20
19256;DHT22;9762;52.490;13.410;2023-03-20T08:37:46;13.70;98.20
19256;DHT22;9762;52.490;13.410;2023-03-20T08:40:11;13.60;98.20
19256;DHT22;9762;52.490;13.410;2023-03-20T08:42:37;13.60;98.40
19256;DHT22;9762;52.490;13.410;2023-03-20T08:45:03;13.60;98.40
19256;DHT22;9762;52.490;13.410;2023-03-20T08:47:29;13.60;98.10
19256;DHT22;9762;52.490;13.410;2023-03-20T08:49:55;13.70;98.00
19256;DHT22;9762;52.490;13.410;2023-03-20T08:52:20;13.80;97.90
19256;DHT22;9762;52.490;13.410;2023-03-20T08:54:46;13.90;97.70
19256;DHT22;9762;52.490;13.410;2023-03-20T08:57:12;14.00;97.60
19256;DHT22;9762;52.490;13.410;2023-03-20T08:59:38;14.10;97.50
19256;DHT22;9762;52.490;13.410;2023-03-20T09:02:05;14.30;97.10
19256;DHT22;9762;52.490;13.410;2023-03-20T09:04:30;14.40;96.70
19256;DHT22;9762;52.490;13.410;2023-03-20T09:06:56;14.40;96.20
19256;DHT22;9762;52.490;13.410;2023-03-20T09:09:22;14.50;95.80
19256;DHT22;9762;52.490;13.410;2023-03-20T09:11:56;14.40;95.30
19256;DHT22;9762;52.490;13.410;2023-03-20T09:14:23;14.40;95.80
19256;DHT22;9762;52.490;13.410;2023-03-20T09:16:49;14.50;95.50
19256;DHT22;9762;52.490;13.410;2023-03-20T09:19:16;14.50;95.20
19256;DHT22;9762;52.490;13.410;2023-03-20T09:21:42;14.50;95.20
19256;DHT22;9762;52.490;13.410;2023-03-20T09:24:07;14.60;95.10
19256;DHT22;9762;52.490;13.410;2023-03-20T09:26:33;14.60;94.80
19256;DHT22;9762;52.490;13.410;2023-03-20T09:28:58;14.70;94.80
19256;DHT22;9762;52.490;13.410;2023-03-20T09:31:24;14.80;94.60
19256;DHT22;9762;52.490;13.410;2023-03-20T09:33:50;14.80;94.10
19256;DHT22;9762;52.490;13.410;2023-03-20T09:36:16;14.80;93.90
19256;DHT22;9762;52.490;13.410;2023-03-20T09:38:41;14.80;93.80
19256;DHT22;9762;52.490;13.410;2023-03-20T09:41:17;14.70;93.80
19256;DHT22;9762;52.490;13.410;2023-03-20T09:44:07;14.70;93.90
19256;DHT22;9762;52.490;13.410;2023-03-20T09:51:39;14.90;93.60
19256;DHT22;9762;52.490;13.410;2023-03-20T09:57:09;14.90;93.50
19256;DHT22;9762;52.490;13.410;2023-03-20T09:59:38;14.90;93.70
19256;DHT22;9762;52.490;13.410;2023-03-20T10:02:11;15.00;93.50
19256;DHT22;9762;52.490;13.410;2023-03-20T10:04:39;15.00;93.20
19256;DHT22;9762;52.490;13.410;2023-03-20T10:07:09;15.00;93.10
19256;DHT22;9762;52.490;13.410;2023-03-20T10:09:37;15.00;93.20
19256;DHT22;9762;52.490;13.410;2023-03-20T10:18:17;15.00;93.20
19256;DHT22;9762;52.490;13.410;2023-03-20T10:21:01;15.00;93.10
19256;DHT22;9762;52.490;13.410;2023-03-20T10:23:42;15.00;93.00
19256;DHT22;9762;52.490;13.410;2023-03-20T10:26:14;15.00;92.80
19256;DHT22;9762;52.490;13.410;2023-03-20T10:28:49;15.00;92.80
19256;DHT22;9762;52.490;13.410;2023-03-20T10:42:47;15.10;92.50
19256;DHT22;9762;52.490;13.410;2023-03-20T10:48:03;15.10;92.20
19256;DHT22;9762;52.490;13.410;2023-03-20T10:50:36;15.20;92.20
19256;DHT22;9762;52.490;13.410;2023-03-20T10:53:05;15.20;91.90
19256;DHT22;9762;52.490;13.410;2023-03-20T10:55:37;15.20;92.00
19256;DHT22;9762;52.490;13.410;2023-03-20T10:58:17;15.20;92.20
19256;DHT22;9762;52.490;13.410;2023-03-20T11:00:44;15.30;91.90
19256;DHT22;9762;52.490;13.410;2023-03-20T11:03:19;15.30;91.80
19256;DHT22;9762;52.490;13.410;2023-03-20T11:05:50;15.30;91.80
19256;DHT22;9762;52.490;13.410;2023-03-20T11:08:22;15.30;91.70
19256;DHT22;9762;52.490;13.410;2023-03-20T11:10:57;15.30;91.50
19256;DHT22;9762;52.490;13.410;2023-03-20T11:13:36;15.20;91.40
19256;DHT22;9762;52.490;13.410;2023-03-20T11:16:18;15.20;91.60
19256;DHT22;9762;52.490;13.410;2023-03-20T11:18:45;15.20;91.60
19256;DHT22;9762;52.490;13.410;2023-03-20T11:21:18;15.10;91.90
19256;DHT22;9762;52.490;13.410;2023-03-20T11:23:44;15.10;91.70
19256;DHT22;9762;52.490;13.410;2023-03-20T11:26:16;15.20;92.00
19256;DHT22;9762;52.490;13.410;2023-03-20T11:28:54;15.20;91.60
19256;DHT22;9762;52.490;13.410;2023-03-20T11:31:36;15.20;91.60
19256;DHT22;9762;52.490;13.410;2023-03-20T11:36:32;15.20;91.10
19256;DHT22;9762;52.490;13.410;2023-03-20T11:39:12;15.20;91.10
19256;DHT22;9762;52.490;13.410;2023-03-20T11:41:47;15.30;91.20
19256;DHT22;9762;52.490;13.410;2023-03-20T11:44:29;15.20;91.00
19256;DHT22;9762;52.490;13.410;2023-03-20T11:46:59;15.30;91.10
19256;DHT22;9762;52.490;13.410;2023-03-20T11:49:26;15.30;90.90
19256;DHT22;9762;52.490;13.410;2023-03-20T11:52:08;15.40;91.00
19256;DHT22;9762;52.490;13.410;2023-03-20T11:54:36;15.50;90.70
19256;DHT22;9762;52.490;13.410;2023-03-20T11:57:03;15.60;90.40
19256;DHT22;9762;52.490;13.410;2023-03-20T11:59:33;15.70;90.20
19256;DHT22;9762;52.490;13.410;2023-03-20T12:02:03;15.70;90.10
19256;DHT22;9762;52.490;13.410;2023-03-20T12:04:35;15.70;89.90
19256;DHT22;9762;52.490;13.410;2023-03-20T12:07:37;15.60;89.90
19256;DHT22;9762;52.490;13.410;2023-03-20T12:10:06;15.60;89.70
19256;DHT22;9762;52.490;13.410;2023-03-20T12:18:45;15.50;89.30
19256;DHT22;9762;52.490;13.410;2023-03-20T12:21:24;15.50;89.50
19256;DHT22;9762;52.490;13.410;2023-03-20T12:24:16;15.50;89.70
19256;DHT22;9762;52.490;13.410;2023-03-20T12:26:50;15.50;89.70
19256;DHT22;9762;52.490;13.410;2023-03-20T12:29:26;15.50;90.30
19256;DHT22;9762;52.490;13.410;2023-03-20T12:32:00;15.50;89.60
19256;DHT22;9762;52.490;13.410;2023-03-20T12:34:36;15.50;89.50
19256;DHT22;9762;52.490;13.410;2023-03-20T12:37:02;15.50;89.10
19256;DHT22;9762;52.490;13.410;2023-03-20T12:39:43;15.50;88.10
19256;DHT22;9762;52.490;13.410;2023-03-20T12:42:17;15.50;88.30
19256;DHT22;9762;52.490;13.410;2023-03-20T12:45:19;15.40;88.00
19256;DHT22;9762;52.490;13.410;2023-03-20T12:48:17;15.30;88.30
19256;DHT22;9762;52.490;13.410;2023-03-20T12:51:09;15.30;88.40
19256;DHT22;9762;52.490;13.410;2023-03-20T12:59:05;15.30;88.80
19256;DHT22;9762;52.490;13.410;2023-03-20T13:01:53;15.20;88.90
19256;DHT22;9762;52.490;13.410;2023-03-20T13:07:24;15.30;89.30
19256;DHT22;9762;52.490;13.410;2023-03-20T13:10:22;15.30;89.00
19256;DHT22;9762;52.490;13.410;2023-03-20T13:13:20;15.30;89.40
19256;DHT22;9762;52.490;13.410;2023-03-20T13:15:54;15.30;89.20
19256;DHT22;9762;52.490;13.410;2023-03-20T13:18:54;15.20;89.20
19256;DHT22;9762;52.490;13.410;2023-03-20T13:24:43;15.20;89.30
19256;DHT22;9762;52.490;13.410;2023-03-20T13:35:27;15.20;90.00
19256;DHT22;9762;52.490;13.410;2023-03-20T13:38:17;15.20;90.00
19256;DHT22;9762;52.490;13.410;2023-03-20T13:40:45;15.30;90.10
19256;DHT22;9762;52.490;13.410;2023-03-20T13:43:33;15.40;90.00
19256;DHT22;9762;52.490;13.410;2023-03-20T13:46:02;15.40;90.00
19256;DHT22;9762;52.490;13.410;2023-03-20T13:48:33;15.50;90.00
19256;DHT22;9762;52.490;13.410;2023-03-20T14:04:02;15.70;89.00
19256;DHT22;9762;52.490;13.410;2023-03-20T14:06:53;15.70;89.50
19256;DHT22;9762;52.490;13.410;2023-03-20T14:11:55;15.70;89.70
19256;DHT22;9762;52.490;13.410;2023-03-20T14:14:29;15.70;89.40
19256;DHT22;9762;52.490;13.410;2023-03-20T14:17:45;15.70;89.40
19256;DHT22;9762;52.490;13.410;2023-03-20T14:19:52;15.70;89.20
19256;DHT22;9762;52.490;13.410;2023-03-20T14:22:35;15.60;89.20
19256;DHT22;9762;52.490;13.410;2023-03-20T14:25:05;15.50;89.40
19256;DHT22;9762;52.490;13.410;2023-03-20T14:27:52;15.50;89.80
19256;DHT22;9762;52.490;13.410;2023-03-20T14:35:48;15.30;90.20
19256;DHT22;9762;52.490;13.410;2023-03-20T14:41:38;15.20;90.40
19256;DHT22;9762;52.490;13.410;2023-03-20T14:47:20;15.10;90.70
19256;DHT22;9762;52.490;13.410;2023-03-20T14:49:54;15.10;90.80
19256;DHT22;9762;52.490;13.410;2023-03-20T14:57:46;15.20;90.90
19256;DHT22;9762;52.490;13.410;2023-03-20T15:02:51;15.20;91.00
19256;DHT22;9762;52.490;13.410;2023-03-20T15:05:24;15.20;91.00
19256;DHT22;9762;52.490;13.410;2023-03-20T15:07:51;15.20;91.00
19256;DHT22;9762;52.490;13.410;2023-03-20T15:10:17;15.20;91.00
19256;DHT22;9762;52.490;13.410;2023-03-20T15:12:43;15.20;90.90
19256;DHT22;9762;52.490;13.410;2023-03-20T15:15:29;15.20;91.10
19256;DHT22;9762;52.490;13.410;2023-03-20T15:18:12;15.20;91.10
19256;DHT22;9762;52.490;13.410;2023-03-20T15:20:42;15.20;91.10
19256;DHT22;9762;52.490;13.410;2023-03-20T15:23:08;15.20;91.10
19256;DHT22;9762;52.490;13.410;2023-03-20T15:25:39;15.30;91.10
19256;DHT22;9762;52.490;13.410;2023-03-20T15:28:32;15.30;91.20
19256;DHT22;9762;52.490;13.410;2023-03-20T15:31:01;15.30;91.20
19256;DHT22;9762;52.490;13.410;2023-03-20T15:33:34;15.30;91.20
19256;DHT22;9762;52.490;13.410;2023-03-20T15:36:09;15.30;91.30
19256;DHT22;9762;52.490;13.410;2023-03-20T15:38:37;15.40;91.30
19256;DHT22;9762;52.490;13.410;2023-03-20T15:41:07;15.40;91.50
19256;DHT22;9762;52.490;13.410;2023-03-20T15:43:33;15.40;91.30
19256;DHT22;9762;52.490;13.410;2023-03-20T15:46:03;15.50;91.30
19256;DHT22;9762;52.490;13.410;2023-03-20T15:48:29;15.50;91.10
19256;DHT22;9762;52.490;13.410;2023-03-20T15:50:57;15.50;91.00
19256;DHT22;9762;52.490;13.410;2023-03-20T15:53:30;15.40;90.90
19256;DHT22;9762;52.490;13.410;2023-03-20T15:56:06;15.40;91.00
19256;DHT22;9762;52.490;13.410;2023-03-20T15:58:33;15.40;91.20
19256;DHT22;9762;52.490;13.410;2023-03-20T16:01:00;15.40;91.10
19256;DHT22;9762;52.490;13.410;2023-03-20T16:03:27;15.40;90.90
19256;DHT22;9762;52.490;13.410;2023-03-20T16:05:57;15.40;90.90
19256;DHT22;9762;52.490;13.410;2023-03-20T16:08:31;15.40;90.90
19256;DHT22;9762;52.490;13.410;2023-03-20T16:11:05;15.40;90.80
19256;DHT22;9762;52.490;13.410;2023-03-20T16:13:45;15.30;90.70
19256;DHT22;9762;52.490;13.410;2023-03-20T16:16:15;15.10;90.70
19256;DHT22;9762;52.490;13.410;2023-03-20T16:18:42;15.20;90.80
19256;DHT22;9762;52.490;13.410;2023-03-20T16:21:24;15.20;90.90
19256;DHT22;9762;52.490;13.410;2023-03-20T16:23:57;15.20;90.70
19256;DHT22;9762;52.490;13.410;2023-03-20T16:26:25;15.20;90.70
19256;DHT22;9762;52.490;13.410;2023-03-20T16:28:57;15.10;90.60
19256;DHT22;9762;52.490;13.410;2023-03-20T16:31:32;15.10;90.60
19256;DHT22;9762;52.490;13.410;2023-03-20T16:34:05;15.00;90.60
19256;DHT22;9762;52.490;13.410;2023-03-20T16:36:33;15.00;90.60
19256;DHT22;9762;52.490;13.410;2023-03-20T16:39:29;15.00;90.70
19256;DHT22;9762;52.490;13.410;2023-03-20T16:44:41;15.00;90.70
19256;DHT22;9762;52.490;13.410;2023-03-20T16:52:34;14.90;90.50
19256;DHT22;9762;52.490;13.410;2023-03-20T16:55:01;14.90;90.60
19256;DHT22;9762;52.490;13.410;2023-03-20T16:57:34;14.90;90.70
19256;DHT22;9762;52.490;13.410;2023-03-20T17:00:05;14.80;91.00
19256;DHT22;9762;52.490;13.410;2023-03-20T17:02:38;14.80;90.80
19256;DHT22;9762;52.490;13.410;2023-03-20T17:05:12;14.70;90.70
19256;DHT22;9762;52.490;13.410;2023-03-20T17:07:37;14.90;90.80
19256;DHT22;9762;52.490;13.410;2023-03-20T17:12:41;14.90;90.60
19256;DHT22;9762;52.490;13.410;2023-03-20T17:15:19;14.90;90.60
19256;DHT22;9762;52.490;13.410;2023-03-20T17:17:45;14.90;90.90
19256;DHT22;9762;52.490;13.410;2023-03-20T17:20:23;14.90;90.90
19256;DHT22;9762;52.490;13.410;2023-03-20T17:22:49;14.90;90.80
19256;DHT22;9762;52.490;13.410;2023-03-20T17:25:15;14.80;90.80
19256;DHT22;9762;52.490;13.410;2023-03-20T17:27:41;14.80;90.80
19256;DHT22;9762;52.490;13.410;2023-03-20T17:30:15;14.80;90.80
19256;DHT22;9762;52.490;13.410;2023-03-20T17:32:41;14.80;90.90
19256;DHT22;9762;52.490;13.410;2023-03-20T17:35:07;14.80;91.20
19256;DHT22;9762;52.490;13.410;2023-03-20T17:37:33;14.80;91.40
19256;DHT22;9762;52.490;13.410;2023-03-20T17:39:58;14.80;91.40
19256;DHT22;9762;52.490;13.410;2023-03-20T17:42:25;14.90;91.20
19256;DHT22;9762;52.490;13.410;2023-03-20T17:44:56;14.90;91.10
19256;DHT22;9762;52.490;13.410;2023-03-20T17:47:24;14.90;91.00
19256;DHT22;9762;52.490;13.410;2023-03-20T17:49:51;14.90;91.00
19256;DHT22;9762;52.490;13.410;2023-03-20T17:52:20;14.90;90.90
19256;DHT22;9762;52.490;13.410;2023-03-20T17:54:47;14.90;91.00
19256;DHT22;9762;52.490;13.410;2023-03-20T17:59:54;14.90;91.20
19256;DHT22;9762;52.490;13.410;2023-03-20T18:02:20;14.90;91.20
19256;DHT22;9762;52.490;13.410;2023-03-20T18:04:46;14.90;91.10
19256;DHT22;9762;52.490;13.410;2023-03-20T18:07:12;14.90;91.00
19256;DHT22;9762;52.490;13.410;2023-03-20T18:09:39;14.90;90.80
19256;DHT22;9762;52.490;13.410;2023-03-20T18:12:08;14.80;90.50